sensor_id;sensor_type;location;lat;lon;timestamp;pressure;altitude;pressure_sealevel;temperature;humidity
68891;BME280;55932;48.702;8.884;2023-02-23T00:00:35;95770;;;7.6;64.5
68891;BME280;55932;48.702;8.884;2023-02-23T00:03:05;95770;;;7.7;64.5
68891;BME280;55932;48.702;8.884;2023-02-23T00:05:44;95780;;;7.8;64
68891;BME280;55932;48.702;8.884;2023-02-23T00:08:14;95770;;;7.8;64
68891;BME280;55932;48.702;8.884;2023-02-23T00:10:35;95780;;;7.9;64
68891;BME280;55932;48.702;8.884;2023-02-23T00:13:05;95770;;;7.9;64
68891;BME280;55932;48.702;8.884;2023-02-23T00:15:44;95770;;;7.9;64
68891;BME280;55932;48.702;8.884;2023-02-23T00:18:05;95770;;;7.9;63.5
68891;BME280;55932;48.702;8.884;2023-02-23T00:20:44;95770;;;7.9;63.5
68891;BME280;55932;48.702;8.884;2023-02-23T00:23:05;95760;;;7.9;63.5
68891;BME280;55932;48.702;8.884;2023-02-23T00:25:37;95760;;;7.7;64
68891;BME280;55932;48.702;8.884;2023-02-23T00:28:05;95760;;;7.6;64
68891;BME280;55932;48.702;8.884;2023-02-23T00:30:37;95760;;;7.6;64
68891;BME280;55932;48.702;8.884;2023-02-23T00:33:11;95760;;;7.7;64
68891;BME280;55932;48.702;8.884;2023-02-23T00:35:36;95760;;;7.7;64
68891;BME280;55932;48.702;8.884;2023-02-23T00:38:06;95760;;;7.7;64
68891;BME280;55932;48.702;8.884;2023-02-23T00:40:45;95760;;;7.7;64
68891;BME280;55932;48.702;8.884;2023-02-23T00:43:06;95760;;;7.7;64
68891;BME280;55932;48.702;8.884;2023-02-23T00:45:36;95760;;;7.8;63.5
68891;BME280;55932;48.702;8.884;2023-02-23T00:48:06;95760;;;7.8;63.5
68891;BME280;55932;48.702;8.884;2023-02-23T00:50:36;95760;;;7.8;63.5
68891;BME280;55932;48.702;8.884;2023-02-23T00:53:06;95760;;;7.7;64
68891;BME280;55932;48.702;8.884;2023-02-23T00:55:39;95760;;;7.7;64
68891;BME280;55932;48.702;8.884;2023-02-23T00:58:07;95760;;;7.8;63.5
68891;BME280;55932;48.702;8.884;2023-02-23T01:00:45;95750;;;7.8;63.5
68891;BME280;55932;48.702;8.884;2023-02-23T01:03:16;95750;;;8;63.5
68891;BME280;55932;48.702;8.884;2023-02-23T01:08:08;95750;;;8.1;63.5
68891;BME280;55932;48.702;8.884;2023-02-23T01:10:38;95750;;;8.1;63
68891;BME280;55932;48.702;8.884;2023-02-23T01:13:07;95740;;;8.2;63
68891;BME280;55932;48.702;8.884;2023-02-23T01:15:41;95750;;;8.2;63
68891;BME280;55932;48.702;8.884;2023-02-23T01:18:07;95750;;;8.2;63
68891;BME280;55932;48.702;8.884;2023-02-23T01:20:37;95740;;;8.2;63
68891;BME280;55932;48.702;8.884;2023-02-23T01:23:07;95740;;;8.2;63
68891;BME280;55932;48.702;8.884;2023-02-23T01:25:47;95750;;;8.2;63
68891;BME280;55932;48.702;8.884;2023-02-23T01:28:16;95750;;;8.2;63
68891;BME280;55932;48.702;8.884;2023-02-23T01:30:38;95740;;;8.2;63
68891;BME280;55932;48.702;8.884;2023-02-23T01:33:07;95750;;;8.2;63
68891;BME280;55932;48.702;8.884;2023-02-23T01:35:38;95740;;;8.2;63.5
68891;BME280;55932;48.702;8.884;2023-02-23T01:38:09;95740;;;8.2;63.5
68891;BME280;55932;48.702;8.884;2023-02-23T01:40:41;95740;;;8.2;63.5
68891;BME280;55932;48.702;8.884;2023-02-23T01:43:11;95740;;;8.1;63.5
68891;BME280;55932;48.702;8.884;2023-02-23T01:45:40;95740;;;8.1;63.5
68891;BME280;55932;48.702;8.884;2023-02-23T01:48:11;95740;;;8.1;63.5
68891;BME280;55932;48.702;8.884;2023-02-23T01:50:54;95740;;;8.1;63.5
68891;BME280;55932;48.702;8.884;2023-02-23T01:53:19;95740;;;8.1;63.5
68891;BME280;55932;48.702;8.884;2023-02-23T01:55:49;95740;;;8.1;63.5
68891;BME280;55932;48.702;8.884;2023-02-23T01:58:11;95740;;;8.1;63.5
68891;BME280;55932;48.702;8.884;2023-02-23T02:00:51;95740;;;8.1;63.5
68891;BME280;55932;48.702;8.884;2023-02-23T02:03:13;95730;;;8.1;63.5
68891;BME280;55932;48.702;8.884;2023-02-23T02:05:40;95730;;;8;63.5
68891;BME280;55932;48.702;8.884;2023-02-23T02:08:10;95730;;;8.1;63.5
68891;BME280;55932;48.702;8.884;2023-02-23T02:10:40;95740;;;8;63.5
68891;BME280;55932;48.702;8.884;2023-02-23T02:13:12;95740;;;8;63.5
68891;BME280;55932;48.702;8.884;2023-02-23T02:15:50;95740;;;8;63.5
68891;BME280;55932;48.702;8.884;2023-02-23T02:18:15;95730;;;8;63.5
68891;BME280;55932;48.702;8.884;2023-02-23T02:21:01;95730;;;8;63.5
68891;BME280;55932;48.702;8.884;2023-02-23T02:23:28;95730;;;8.1;63.5
68891;BME280;55932;48.702;8.884;2023-02-23T02:28:21;95720;;;8.1;63.5
68891;BME280;55932;48.702;8.884;2023-02-23T02:30:54;95730;;;8.1;63.5
68891;BME280;55932;48.702;8.884;2023-02-23T02:35:45;95720;;;8.1;63.5
68891;BME280;55932;48.702;8.884;2023-02-23T02:38:25;95720;;;8.1;63.5
68891;BME280;55932;48.702;8.884;2023-02-23T02:40:42;95720;;;8;63.5
68891;BME280;55932;48.702;8.884;2023-02-23T02:43:14;95720;;;8;63.5
68891;BME280;55932;48.702;8.884;2023-02-23T02:46:00;95710;;;8.1;63.5
68891;BME280;55932;48.702;8.884;2023-02-23T02:48:31;95710;;;8.1;63.5
68891;BME280;55932;48.702;8.884;2023-02-23T02:53:13;95710;;;8.1;63.5
68891;BME280;55932;48.702;8.884;2023-02-23T02:55:42;95710;;;8.1;63.5
68891;BME280;55932;48.702;8.884;2023-02-23T02:58:12;95710;;;8.1;63.5
68891;BME280;55932;48.702;8.884;2023-02-23T03:00:46;95720;;;8.1;63.5
68891;BME280;55932;48.702;8.884;2023-02-23T03:03:26;95710;;;8.1;63.5
68891;BME280;55932;48.702;8.884;2023-02-23T03:05:44;95710;;;8.1;63.5
68891;BME280;55932;48.702;8.884;2023-02-23T03:08:16;95710;;;8.1;63.5
68891;BME280;55932;48.702;8.884;2023-02-23T03:10:54;95710;;;8.1;63.5
68891;BME280;55932;48.702;8.884;2023-02-23T03:13:26;95710;;;8.1;63.5
68891;BME280;55932;48.702;8.884;2023-02-23T03:15:48;95710;;;8.1;63.5
68891;BME280;55932;48.702;8.884;2023-02-23T03:18:18;95710;;;8.1;63.5
68891;BME280;55932;48.702;8.884;2023-02-23T03:20:44;95710;;;8.1;63.5
68891;BME280;55932;48.702;8.884;2023-02-23T03:23:16;95710;;;8.1;63.5
68891;BME280;55932;48.702;8.884;2023-02-23T03:25:45;95710;;;8.1;63.5
68891;BME280;55932;48.702;8.884;2023-02-23T03:28:24;95710;;;8.1;63.5
68891;BME280;55932;48.702;8.884;2023-02-23T03:31:15;95710;;;8;63.5
68891;BME280;55932;48.702;8.884;2023-02-23T03:33:15;95710;;;8;63.5
68891;BME280;55932;48.702;8.884;2023-02-23T03:36:01;95710;;;8;63.5
68891;BME280;55932;48.702;8.884;2023-02-23T03:38:39;95710;;;8;63.5
68891;BME280;55932;48.702;8.884;2023-02-23T03:40:43;95720;;;7.9;63.5
68891;BME280;55932;48.702;8.884;2023-02-23T03:43:15;95720;;;7.9;63.5
68891;BME280;55932;48.702;8.884;2023-02-23T03:45:44;95720;;;8;63.5
68891;BME280;55932;48.702;8.884;2023-02-23T03:48:14;95720;;;8;63.5
68891;BME280;55932;48.702;8.884;2023-02-23T03:50:45;95720;;;7.9;64
68891;BME280;55932;48.702;8.884;2023-02-23T03:53:14;95720;;;7.9;64
68891;BME280;55932;48.702;8.884;2023-02-23T03:55:46;95720;;;8;63.5
68891;BME280;55932;48.702;8.884;2023-02-23T03:58:30;95720;;;8;63.5
68891;BME280;55932;48.702;8.884;2023-02-23T04:00:53;95720;;;7.9;64
68891;BME280;55932;48.702;8.884;2023-02-23T04:05:44;95720;;;7.8;64
68891;BME280;55932;48.702;8.884;2023-02-23T04:08:15;95720;;;7.7;64
68891;BME280;55932;48.702;8.884;2023-02-23T04:10:46;95720;;;7.8;64
68891;BME280;55932;48.702;8.884;2023-02-23T04:13:17;95720;;;7.8;64
68891;BME280;55932;48.702;8.884;2023-02-23T04:15:58;95720;;;7.8;64
68891;BME280;55932;48.702;8.884;2023-02-23T04:18:32;95720;;;7.8;64
68891;BME280;55932;48.702;8.884;2023-02-23T04:20:44;95720;;;7.9;64
68891;BME280;55932;48.702;8.884;2023-02-23T04:23:14;95720;;;7.9;63.5
68891;BME280;55932;48.702;8.884;2023-02-23T04:25:44;95720;;;7.9;64
68891;BME280;55932;48.702;8.884;2023-02-23T04:28:24;95720;;;7.9;64
68891;BME280;55932;48.702;8.884;2023-02-23T04:30:54;95720;;;7.9;63.5
68891;BME280;55932;48.702;8.884;2023-02-23T04:33:15;95730;;;7.8;64
68891;BME280;55932;48.702;8.884;2023-02-23T04:35:45;95730;;;7.9;64
68891;BME280;55932;48.702;8.884;2023-02-23T04:38:15;95730;;;7.9;63.5
68891;BME280;55932;48.702;8.884;2023-02-23T04:40:45;95730;;;7.9;63.5
68891;BME280;55932;48.702;8.884;2023-02-23T04:43:15;95730;;;7.9;63.5
68891;BME280;55932;48.702;8.884;2023-02-23T04:45:45;95730;;;7.9;63.5
68891;BME280;55932;48.702;8.884;2023-02-23T04:48:15;95730;;;7.9;63.5
68891;BME280;55932;48.702;8.884;2023-02-23T04:50:45;95730;;;7.8;63.5
68891;BME280;55932;48.702;8.884;2023-02-23T04:53:24;95730;;;7.8;63.5
68891;BME280;55932;48.702;8.884;2023-02-23T04:58:16;95730;;;7.8;63.5
68891;BME280;55932;48.702;8.884;2023-02-23T05:05:55;95730;;;7.8;63.5
68891;BME280;55932;48.702;8.884;2023-02-23T05:10:46;95720;;;7.8;63.5
68891;BME280;55932;48.702;8.884;2023-02-23T05:13:16;95730;;;7.8;64
68891;BME280;55932;48.702;8.884;2023-02-23T05:15:46;95730;;;7.9;63.5
68891;BME280;55932;48.702;8.884;2023-02-23T05:18:06;95730;;;7.8;64
68891;BME280;55932;48.702;8.884;2023-02-23T05:20:36;95730;;;7.7;64
68891;BME280;55932;48.702;8.884;2023-02-23T05:28:08;95730;;;7.8;64
68891;BME280;55932;48.702;8.884;2023-02-23T05:30:38;95730;;;7.8;64
68891;BME280;55932;48.702;8.884;2023-02-23T05:33:10;95730;;;7.8;64
68891;BME280;55932;48.702;8.884;2023-02-23T05:35:39;95730;;;7.7;64
68891;BME280;55932;48.702;8.884;2023-02-23T05:40:52;95730;;;7.7;64
68891;BME280;55932;48.702;8.884;2023-02-23T05:43:22;95730;;;7.7;64
68891;BME280;55932;48.702;8.884;2023-02-23T05:48:25;95740;;;7.7;64
68891;BME280;55932;48.702;8.884;2023-02-23T05:55:43;95730;;;7.8;64
68891;BME280;55932;48.702;8.884;2023-02-23T05:58:14;95730;;;7.8;64
68891;BME280;55932;48.702;8.884;2023-02-23T06:00:44;95740;;;7.7;64
68891;BME280;55932;48.702;8.884;2023-02-23T06:03:15;95730;;;7.6;64
68891;BME280;55932;48.702;8.884;2023-02-23T06:05:57;95740;;;7.5;64
68891;BME280;55932;48.702;8.884;2023-02-23T06:08:36;95730;;;7.5;64
68891;BME280;55932;48.702;8.884;2023-02-23T06:10:57;95740;;;7.5;64
68891;BME280;55932;48.702;8.884;2023-02-23T06:13:15;95740;;;7.5;64
68891;BME280;55932;48.702;8.884;2023-02-23T06:16:08;95740;;;7.6;64
68891;BME280;55932;48.702;8.884;2023-02-23T06:18:39;95730;;;7.6;64
68891;BME280;55932;48.702;8.884;2023-02-23T06:21:10;95740;;;7.6;64
68891;BME280;55932;48.702;8.884;2023-02-23T06:23:38;95740;;;7.6;64
68891;BME280;55932;48.702;8.884;2023-02-23T06:26:08;95740;;;7.5;64
68891;BME280;55932;48.702;8.884;2023-02-23T06:28:29;95750;;;7.4;64
68891;BME280;55932;48.702;8.884;2023-02-23T06:33:18;95750;;;7.4;64
68891;BME280;55932;48.702;8.884;2023-02-23T06:35:48;95750;;;7.4;64
68891;BME280;55932;48.702;8.884;2023-02-23T06:38:19;95750;;;7.4;64.5
68891;BME280;55932;48.702;8.884;2023-02-23T06:40:49;95750;;;7.5;64
68891;BME280;55932;48.702;8.884;2023-02-23T06:48:21;95760;;;7.4;64
68891;BME280;55932;48.702;8.884;2023-02-23T06:50:51;95760;;;7.4;64
68891;BME280;55932;48.702;8.884;2023-02-23T06:58:54;95780;;;7.4;64
68891;BME280;55932;48.702;8.884;2023-02-23T07:01:16;95780;;;7.4;64
68891;BME280;55932;48.702;8.884;2023-02-23T07:03:46;95780;;;7.5;64
68891;BME280;55932;48.702;8.884;2023-02-23T07:06:05;95780;;;7.5;64
68891;BME280;55932;48.702;8.884;2023-02-23T07:08:35;95790;;;7.6;64
68891;BME280;55932;48.702;8.884;2023-02-23T07:11:07;95790;;;7.7;64
68891;BME280;55932;48.702;8.884;2023-02-23T07:13:47;95790;;;7.8;63.5
68891;BME280;55932;48.702;8.884;2023-02-23T07:21:19;95800;;;8.1;63.5
68891;BME280;55932;48.702;8.884;2023-02-23T07:31:29;95810;;;8.2;63.5
68891;BME280;55932;48.702;8.884;2023-02-23T07:34:00;95810;;;8.3;63.5
68891;BME280;55932;48.702;8.884;2023-02-23T07:38:52;95800;;;8.4;63
68891;BME280;55932;48.702;8.884;2023-02-23T07:41:24;95800;;;8.5;63
68891;BME280;55932;48.702;8.884;2023-02-23T07:48:43;95800;;;8.6;63
68891;BME280;55932;48.702;8.884;2023-02-23T07:51:13;95800;;;8.7;63
68891;BME280;55932;48.702;8.884;2023-02-23T07:58:46;95800;;;9.1;63
68891;BME280;55932;48.702;8.884;2023-02-23T08:01:28;95790;;;9.1;63
68891;BME280;55932;48.702;8.884;2023-02-23T08:06:35;95800;;;9.4;63
68891;BME280;55932;48.702;8.884;2023-02-23T08:09:14;95800;;;9.5;62.5
68891;BME280;55932;48.702;8.884;2023-02-23T08:11:27;95810;;;9.7;62.5
68891;BME280;55932;48.702;8.884;2023-02-23T08:18:59;95800;;;10.1;62.5
68891;BME280;55932;48.702;8.884;2023-02-23T08:21:29;95810;;;10.2;62.5
68891;BME280;55932;48.702;8.884;2023-02-23T08:24:00;95810;;;10.2;62.5
68891;BME280;55932;48.702;8.884;2023-02-23T08:26:28;95810;;;10.2;62.5
68891;BME280;55932;48.702;8.884;2023-02-23T08:33:50;95810;;;10.3;63
68891;BME280;55932;48.702;8.884;2023-02-23T08:36:24;95810;;;10.5;62.5
68891;BME280;55932;48.702;8.884;2023-02-23T08:38:50;95800;;;10.7;62
68891;BME280;55932;48.702;8.884;2023-02-23T08:41:20;95800;;;11;62
68891;BME280;55932;48.702;8.884;2023-02-23T08:43:39;95800;;;11.3;62
68891;BME280;55932;48.702;8.884;2023-02-23T08:51:11;95800;;;11.5;61.5
68891;BME280;55932;48.702;8.884;2023-02-23T08:53:42;95810;;;11.6;62
68891;BME280;55932;48.702;8.884;2023-02-23T08:56:12;95810;;;11.6;61.5
68891;BME280;55932;48.702;8.884;2023-02-23T09:01:15;95810;;;11.4;62
68891;BME280;55932;48.702;8.884;2023-02-23T09:03:44;95810;;;11.5;62
68891;BME280;55932;48.702;8.884;2023-02-23T09:06:15;95810;;;11.7;62
68891;BME280;55932;48.702;8.884;2023-02-23T09:08:45;95820;;;11.9;62
68891;BME280;55932;48.702;8.884;2023-02-23T09:11:15;95820;;;11.7;62
68891;BME280;55932;48.702;8.884;2023-02-23T09:18:46;95820;;;12;62
68891;BME280;55932;48.702;8.884;2023-02-23T09:21:18;95820;;;12.4;61.5
68891;BME280;55932;48.702;8.884;2023-02-23T09:23:59;95810;;;12.9;61.5
68891;BME280;55932;48.702;8.884;2023-02-23T09:26:29;95810;;;13.4;61
68891;BME280;55932;48.702;8.884;2023-02-23T09:31:29;95810;;;15.2;60
68891;BME280;55932;48.702;8.884;2023-02-23T09:33:59;95810;;;15.6;59.5
68891;BME280;55932;48.702;8.884;2023-02-23T09:36:29;95810;;;15.5;59.5
68891;BME280;55932;48.702;8.884;2023-02-23T09:43:54;95810;;;15.3;60.5
68891;BME280;55932;48.702;8.884;2023-02-23T09:46:25;95810;;;15.3;60.5
68891;BME280;55932;48.702;8.884;2023-02-23T09:48:50;95810;;;15.1;61.5
68891;BME280;55932;48.702;8.884;2023-02-23T09:51:21;95810;;;15.2;61
68891;BME280;55932;48.702;8.884;2023-02-23T09:53:53;95810;;;15.3;61
68891;BME280;55932;48.702;8.884;2023-02-23T09:56:25;95810;;;15.2;61.5
68891;BME280;55932;48.702;8.884;2023-02-23T09:58:52;95810;;;15.4;61.5
68891;BME280;55932;48.702;8.884;2023-02-23T10:02:29;95810;;;15.2;61
68891;BME280;55932;48.702;8.884;2023-02-23T10:06:35;95810;;;14.4;61.5
68891;BME280;55932;48.702;8.884;2023-02-23T10:11:45;95820;;;13.8;62.5
68891;BME280;55932;48.702;8.884;2023-02-23T10:16:40;95810;;;13.9;62.5
68891;BME280;55932;48.702;8.884;2023-02-23T10:21:38;95820;;;13.9;62.5
68891;BME280;55932;48.702;8.884;2023-02-23T10:23:57;95820;;;14;62
68891;BME280;55932;48.702;8.884;2023-02-23T10:26:31;95810;;;14;62.5
68891;BME280;55932;48.702;8.884;2023-02-23T10:28:56;95820;;;14.1;62
68891;BME280;55932;48.702;8.884;2023-02-23T10:38:58;95820;;;14.3;62.5
68891;BME280;55932;48.702;8.884;2023-02-23T10:41:28;95820;;;14.3;62.5
68891;BME280;55932;48.702;8.884;2023-02-23T10:46:34;95820;;;14.1;62
68891;BME280;55932;48.702;8.884;2023-02-23T10:49:00;95820;;;14.1;62.5
68891;BME280;55932;48.702;8.884;2023-02-23T10:51:35;95810;;;14;62.5
68891;BME280;55932;48.702;8.884;2023-02-23T10:54:32;95820;;;13.9;62.5
68891;BME280;55932;48.702;8.884;2023-02-23T11:01:34;95820;;;13.5;63
68891;BME280;55932;48.702;8.884;2023-02-23T11:04:11;95820;;;13.7;63
68891;BME280;55932;48.702;8.884;2023-02-23T11:06:35;95820;;;13.9;62.5
68891;BME280;55932;48.702;8.884;2023-02-23T11:12:02;95810;;;14.2;62
68891;BME280;55932;48.702;8.884;2023-02-23T11:14:16;95810;;;14.2;62
68891;BME280;55932;48.702;8.884;2023-02-23T11:16:46;95810;;;14.3;62.5
68891;BME280;55932;48.702;8.884;2023-02-23T11:19:20;95810;;;14.4;62.5
68891;BME280;55932;48.702;8.884;2023-02-23T11:29:11;95790;;;14.9;62
68891;BME280;55932;48.702;8.884;2023-02-23T11:31:37;95790;;;15;62
68891;BME280;55932;48.702;8.884;2023-02-23T11:34:10;95790;;;15;62.5
68891;BME280;55932;48.702;8.884;2023-02-23T11:36:39;95790;;;15;62
68891;BME280;55932;48.702;8.884;2023-02-23T11:39:17;95790;;;15.3;62
68891;BME280;55932;48.702;8.884;2023-02-23T11:41:39;95780;;;15.5;62
68891;BME280;55932;48.702;8.884;2023-02-23T11:44:22;95780;;;15.6;61.5
68891;BME280;55932;48.702;8.884;2023-02-23T11:47:01;95780;;;15.2;63
68891;BME280;55932;48.702;8.884;2023-02-23T11:49:26;95780;;;15.3;62.5
68891;BME280;55932;48.702;8.884;2023-02-23T11:52:01;95770;;;15.3;62
68891;BME280;55932;48.702;8.884;2023-02-23T11:54:26;95770;;;14.9;62.5
68891;BME280;55932;48.702;8.884;2023-02-23T11:56:41;95780;;;14.5;63.5
68891;BME280;55932;48.702;8.884;2023-02-23T11:59:14;95780;;;14.5;63
68891;BME280;55932;48.702;8.884;2023-02-23T12:01:42;95770;;;14.5;63
68891;BME280;55932;48.702;8.884;2023-02-23T12:04:29;95770;;;14.3;63
68891;BME280;55932;48.702;8.884;2023-02-23T12:06:43;95770;;;14.1;63
68891;BME280;55932;48.702;8.884;2023-02-23T12:27:03;95760;;;14.4;63
68891;BME280;55932;48.702;8.884;2023-02-23T12:31:59;95760;;;14.2;63.5
68891;BME280;55932;48.702;8.884;2023-02-23T12:34:31;95760;;;14.2;63
68891;BME280;55932;48.702;8.884;2023-02-23T12:42:19;95760;;;14.1;63.5
68891;BME280;55932;48.702;8.884;2023-02-23T12:47:31;95750;;;14;63.5
68891;BME280;55932;48.702;8.884;2023-02-23T12:52:21;95750;;;13.9;63
68891;BME280;55932;48.702;8.884;2023-02-23T12:54:44;95750;;;13.7;64
68891;BME280;55932;48.702;8.884;2023-02-23T12:57:18;95750;;;13.5;64
68891;BME280;55932;48.702;8.884;2023-02-23T12:59:40;95750;;;13.4;64
68891;BME280;55932;48.702;8.884;2023-02-23T13:09:50;95740;;;13.2;64
68891;BME280;55932;48.702;8.884;2023-02-23T13:17:12;95750;;;13.1;64
68891;BME280;55932;48.702;8.884;2023-02-23T13:29:40;95760;;;12.2;65
68891;BME280;55932;48.702;8.884;2023-02-23T13:32:15;95750;;;12.1;65
68891;BME280;55932;48.702;8.884;2023-02-23T13:39:52;95750;;;12.2;65
68891;BME280;55932;48.702;8.884;2023-02-23T13:42:20;95750;;;12.6;64.5
68891;BME280;55932;48.702;8.884;2023-02-23T13:48:36;95750;;;12.8;64.5
68891;BME280;55932;48.702;8.884;2023-02-23T13:54:54;95740;;;12.7;64.5
68891;BME280;55932;48.702;8.884;2023-02-23T13:59:54;95740;;;12.7;64.5
68891;BME280;55932;48.702;8.884;2023-02-23T14:04:43;95740;;;12.5;65
68891;BME280;55932;48.702;8.884;2023-02-23T14:07:24;95740;;;12.5;65
68891;BME280;55932;48.702;8.884;2023-02-23T14:22:27;95740;;;12.1;65.5
68891;BME280;55932;48.702;8.884;2023-02-23T14:27:44;95730;;;11.8;66
68891;BME280;55932;48.702;8.884;2023-02-23T14:30:19;95730;;;11.9;66
68891;BME280;55932;48.702;8.884;2023-02-23T14:32:27;95730;;;12.2;65.5
68891;BME280;55932;48.702;8.884;2023-02-23T14:34:57;95730;;;12.4;65
68891;BME280;55932;48.702;8.884;2023-02-23T14:37:26;95730;;;12.5;65.5
68891;BME280;55932;48.702;8.884;2023-02-23T14:39:48;95730;;;12.6;65
68891;BME280;55932;48.702;8.884;2023-02-23T14:44:37;95730;;;12.7;65
68891;BME280;55932;48.702;8.884;2023-02-23T14:47:10;95730;;;12.9;64.5
68891;BME280;55932;48.702;8.884;2023-02-23T14:49:41;95740;;;12.5;65
68891;BME280;55932;48.702;8.884;2023-02-23T14:59:40;95740;;;11.5;66
68891;BME280;55932;48.702;8.884;2023-02-23T15:02:15;95740;;;11.6;65.5
68891;BME280;55932;48.702;8.884;2023-02-23T15:04:41;95730;;;11.8;65.5
68891;BME280;55932;48.702;8.884;2023-02-23T15:09:54;95740;;;11.8;65.5
68891;BME280;55932;48.702;8.884;2023-02-23T15:12:26;95740;;;11.9;65.5
68891;BME280;55932;48.702;8.884;2023-02-23T15:14:55;95730;;;12.1;65
68891;BME280;55932;48.702;8.884;2023-02-23T15:17:25;95730;;;12.1;65
68891;BME280;55932;48.702;8.884;2023-02-23T15:24:46;95750;;;11.4;66
68891;BME280;55932;48.702;8.884;2023-02-23T15:27:19;95740;;;11.2;66
68891;BME280;55932;48.702;8.884;2023-02-23T15:29:45;95740;;;11.2;65.5
68891;BME280;55932;48.702;8.884;2023-02-23T15:32:20;95740;;;11.4;65.5
68891;BME280;55932;48.702;8.884;2023-02-23T15:34:57;95750;;;11.3;65.5
68891;BME280;55932;48.702;8.884;2023-02-23T15:37:29;95750;;;11.2;65.5
68891;BME280;55932;48.702;8.884;2023-02-23T15:39:58;95750;;;11.1;65.5
68891;BME280;55932;48.702;8.884;2023-02-23T15:42:33;95750;;;11;65.5
68891;BME280;55932;48.702;8.884;2023-02-23T16:00:21;95750;;;11.1;65.5
68891;BME280;55932;48.702;8.884;2023-02-23T16:05:17;95750;;;10.7;66
68891;BME280;55932;48.702;8.884;2023-02-23T16:10:19;95760;;;10.7;66
68891;BME280;55932;48.702;8.884;2023-02-23T16:12:45;95750;;;10.7;66
68891;BME280;55932;48.702;8.884;2023-02-23T16:17:45;95750;;;10.7;65.5
68891;BME280;55932;48.702;8.884;2023-02-23T16:21:10;95760;;;10.4;66
68891;BME280;55932;48.702;8.884;2023-02-23T16:22:35;95760;;;10.3;66.5
68891;BME280;55932;48.702;8.884;2023-02-23T16:25:06;95760;;;10.2;66.5
68891;BME280;55932;48.702;8.884;2023-02-23T16:27:35;95760;;;10.2;66.5
68891;BME280;55932;48.702;8.884;2023-02-23T16:30:22;95760;;;10.3;66
68891;BME280;55932;48.702;8.884;2023-02-23T16:32:37;95760;;;10.3;66
68891;BME280;55932;48.702;8.884;2023-02-23T16:35:09;95760;;;10.3;66
68891;BME280;55932;48.702;8.884;2023-02-23T16:38:44;95760;;;10.2;66
68891;BME280;55932;48.702;8.884;2023-02-23T16:40:15;95760;;;10.2;66
68891;BME280;55932;48.702;8.884;2023-02-23T16:44:58;95760;;;10.1;66
68891;BME280;55932;48.702;8.884;2023-02-23T16:47:30;95770;;;10.1;66
68891;BME280;55932;48.702;8.884;2023-02-23T16:49:57;95760;;;10.1;66
68891;BME280;55932;48.702;8.884;2023-02-23T16:52:27;95760;;;10.1;66
68891;BME280;55932;48.702;8.884;2023-02-23T16:54:58;95760;;;9.9;66
68891;BME280;55932;48.702;8.884;2023-02-23T16:57:52;95770;;;9.7;66
68891;BME280;55932;48.702;8.884;2023-02-23T17:00:25;95770;;;9.5;66
68891;BME280;55932;48.702;8.884;2023-02-23T17:05:12;95770;;;9.3;66.5
68891;BME280;55932;48.702;8.884;2023-02-23T17:07:51;95760;;;9;67
68891;BME280;55932;48.702;8.884;2023-02-23T17:10:21;95760;;;8.8;67
68891;BME280;55932;48.702;8.884;2023-02-23T17:12:41;95760;;;8.7;67
68891;BME280;55932;48.702;8.884;2023-02-23T17:15:13;95770;;;8.9;66.5
68891;BME280;55932;48.702;8.884;2023-02-23T17:17:42;95770;;;8.9;66.5
68891;BME280;55932;48.702;8.884;2023-02-23T17:20:12;95780;;;8.9;66.5
68891;BME280;55932;48.702;8.884;2023-02-23T17:22:43;95770;;;8.9;66.5
68891;BME280;55932;48.702;8.884;2023-02-23T17:25:13;95780;;;8.8;66.5
68891;BME280;55932;48.702;8.884;2023-02-23T17:27:43;95780;;;8.9;66.5
68891;BME280;55932;48.702;8.884;2023-02-23T17:30:22;95780;;;8.8;66.5
68891;BME280;55932;48.702;8.884;2023-02-23T17:35:25;95780;;;8.9;66.5
68891;BME280;55932;48.702;8.884;2023-02-23T17:37:55;95770;;;8.9;66.5
68891;BME280;55932;48.702;8.884;2023-02-23T17:40:26;95780;;;9;66
68891;BME280;55932;48.702;8.884;2023-02-23T17:45:15;95770;;;8.9;66.5
68891;BME280;55932;48.702;8.884;2023-02-23T17:47:46;95780;;;9;66
68891;BME280;55932;48.702;8.884;2023-02-23T17:52:58;95780;;;8.9;66.5
68891;BME280;55932;48.702;8.884;2023-02-23T17:55:28;95770;;;8.9;66.5
68891;BME280;55932;48.702;8.884;2023-02-23T17:57:58;95770;;;8.9;66.5
68891;BME280;55932;48.702;8.884;2023-02-23T18:00:29;95770;;;8.9;66.5
68891;BME280;55932;48.702;8.884;2023-02-23T18:05:28;95780;;;8.8;66.5
68891;BME280;55932;48.702;8.884;2023-02-23T18:07:49;95780;;;8.8;66
68891;BME280;55932;48.702;8.884;2023-02-23T18:10:18;95790;;;8.9;66
68891;BME280;55932;48.702;8.884;2023-02-23T18:12:48;95790;;;8.9;66
68891;BME280;55932;48.702;8.884;2023-02-23T18:18:01;95790;;;8.8;66
68891;BME280;55932;48.702;8.884;2023-02-23T18:20:31;95790;;;8.8;66
68891;BME280;55932;48.702;8.884;2023-02-23T18:25:23;95800;;;8.9;66
68891;BME280;55932;48.702;8.884;2023-02-23T18:27:52;95800;;;8.8;66
68891;BME280;55932;48.702;8.884;2023-02-23T18:30:30;95800;;;8.9;66
68891;BME280;55932;48.702;8.884;2023-02-23T18:33:01;95800;;;8.9;66
68891;BME280;55932;48.702;8.884;2023-02-23T18:37:41;95800;;;8.9;66
68891;BME280;55932;48.702;8.884;2023-02-23T18:40:11;95800;;;8.9;66
68891;BME280;55932;48.702;8.884;2023-02-23T18:42:42;95790;;;8.9;66
68891;BME280;55932;48.702;8.884;2023-02-23T18:45:13;95790;;;8.9;66
68891;BME280;55932;48.702;8.884;2023-02-23T18:47:43;95780;;;8.8;66
68891;BME280;55932;48.702;8.884;2023-02-23T19:02:57;95780;;;8.8;66
68891;BME280;55932;48.702;8.884;2023-02-23T19:07:57;95790;;;8.9;65.5
68891;BME280;55932;48.702;8.884;2023-02-23T19:10:28;95790;;;8.9;66
68891;BME280;55932;48.702;8.884;2023-02-23T19:12:58;95790;;;8.8;66
68891;BME280;55932;48.702;8.884;2023-02-23T19:15:28;95780;;;8.7;66
68891;BME280;55932;48.702;8.884;2023-02-23T19:17:58;95780;;;8.7;66
68891;BME280;55932;48.702;8.884;2023-02-23T19:20:40;95780;;;8.7;66
68891;BME280;55932;48.702;8.884;2023-02-23T19:23:11;95770;;;8.6;66.5
68891;BME280;55932;48.702;8.884;2023-02-23T19:25:44;95770;;;8.5;66.5
68891;BME280;55932;48.702;8.884;2023-02-23T19:33:02;95770;;;8.6;66
68891;BME280;55932;48.702;8.884;2023-02-23T19:35:31;95770;;;8.6;66
68891;BME280;55932;48.702;8.884;2023-02-23T19:40:32;95770;;;8.6;66
68891;BME280;55932;48.702;8.884;2023-02-23T19:43:02;95770;;;8.5;66
68891;BME280;55932;48.702;8.884;2023-02-23T19:45:32;95770;;;8.6;66
68891;BME280;55932;48.702;8.884;2023-02-23T19:50:21;95770;;;8.6;66